createdAt,value
2018-12-17T00:01:20.945Z,34.50
2018-12-17T00:04:27.985Z,34.40
2018-12-17T00:07:34.589Z,34.40
2018-12-17T00:10:39.188Z,34.60
2018-12-17T00:13:43.741Z,34.40
2018-12-17T00:16:48.346Z,34.30
2018-12-17T00:19:53.309Z,34.30
2018-12-17T00:22:57.902Z,34.30
2018-12-17T00:26:02.683Z,34.30
2018-12-17T00:29:07.258Z,34.30
2018-12-17T00:32:12.086Z,34.20
2018-12-17T00:35:16.610Z,34.30
2018-12-17T00:38:21.170Z,34.20
2018-12-17T00:41:25.682Z,34.30
2018-12-17T00:44:30.254Z,34.20
2018-12-17T00:47:34.817Z,34.20
2018-12-17T00:50:39.654Z,34.20
2018-12-17T00:53:44.216Z,34.10
2018-12-17T00:56:48.854Z,34.10
2018-12-17T00:59:53.449Z,34.00
2018-12-17T01:02:58.001Z,34.10
2018-12-17T01:06:03.259Z,34.00
2018-12-17T01:09:08.314Z,34.00
2018-12-17T01:12:13.586Z,34.00
2018-12-17T01:15:18.170Z,34.00
2018-12-17T01:18:23.766Z,34.00
2018-12-17T01:21:28.693Z,33.90
2018-12-17T01:24:33.235Z,34.00
2018-12-17T01:27:37.790Z,34.00
2018-12-17T01:30:42.390Z,34.00
2018-12-17T01:33:47.667Z,33.90
2018-12-17T01:36:52.262Z,33.90
2018-12-17T01:39:56.938Z,33.80
2018-12-17T01:43:01.531Z,33.90
2018-12-17T01:46:06.298Z,34.00
2018-12-17T01:49:10.879Z,33.90
2018-12-17T01:52:15.437Z,33.80
2018-12-17T01:55:20.025Z,33.90
2018-12-17T01:58:29.238Z,33.90
2018-12-17T02:01:31.932Z,33.90
2018-12-17T02:04:36.618Z,33.80
2018-12-17T02:07:41.209Z,33.90
2018-12-17T02:10:45.748Z,33.90
2018-12-17T02:13:50.401Z,33.90
2018-12-17T02:16:55.003Z,33.90
2018-12-17T02:19:59.959Z,33.90
2018-12-17T02:23:04.462Z,33.80
2018-12-17T02:26:10.226Z,33.80
2018-12-17T02:29:14.741Z,33.80
2018-12-17T02:32:19.266Z,33.80
2018-12-17T02:35:25.140Z,33.80
2018-12-17T02:38:29.846Z,33.80
2018-12-17T02:41:34.388Z,33.80
2018-12-17T02:44:38.915Z,33.00
2018-12-17T02:47:43.442Z,32.50
2018-12-17T02:50:47.962Z,32.30
2018-12-17T02:53:52.495Z,32.20
2018-12-17T02:56:57.012Z,32.10
2018-12-17T03:00:01.537Z,32.10
2018-12-17T03:03:06.175Z,32.20
2018-12-17T03:06:11.891Z,32.10
2018-12-17T03:09:16.551Z,32.10
2018-12-17T03:12:21.070Z,31.90
2018-12-17T03:15:25.717Z,32.00
2018-12-17T03:18:30.240Z,32.00
2018-12-17T03:21:34.872Z,31.90
2018-12-17T03:24:39.386Z,31.90
2018-12-17T03:27:43.932Z,31.90
2018-12-17T03:30:48.435Z,31.90
2018-12-17T03:37:59.242Z,31.80
2018-12-17T03:41:04.022Z,31.80
2018-12-17T03:44:08.610Z,31.80
2018-12-17T03:47:13.186Z,31.80
2018-12-17T03:50:17.713Z,31.70
2018-12-17T03:53:22.270Z,31.70
2018-12-17T03:56:26.869Z,31.70
2018-12-17T03:59:31.417Z,31.70
2018-12-17T04:02:35.902Z,31.80
2018-12-17T04:05:40.479Z,31.70
2018-12-17T04:08:45.063Z,31.70
2018-12-17T04:11:49.697Z,31.60
2018-12-17T04:14:54.232Z,31.80
2018-12-17T04:17:58.923Z,31.70
2018-12-17T04:21:03.493Z,31.60
2018-12-17T04:24:08.013Z,31.70
2018-12-17T04:27:14.797Z,31.60
2018-12-17T04:30:19.301Z,31.90
2018-12-17T04:33:23.825Z,31.60
2018-12-17T04:36:29.378Z,31.70
2018-12-17T04:39:33.960Z,31.70
2018-12-17T04:42:38.534Z,31.70
2018-12-17T04:45:43.245Z,31.70
2018-12-17T04:48:47.810Z,31.80
2018-12-17T04:51:52.462Z,31.70
2018-12-17T04:54:56.965Z,31.70
2018-12-17T04:58:01.804Z,31.70
2018-12-17T05:01:07.329Z,31.60
2018-12-17T05:04:11.887Z,31.60
2018-12-17T05:07:16.414Z,31.60
2018-12-17T05:10:21.089Z,31.60
2018-12-17T05:13:26.813Z,31.60
2018-12-17T05:16:31.427Z,31.50
2018-12-17T05:19:35.935Z,31.50
2018-12-17T05:22:40.494Z,31.50
2018-12-17T05:25:45.181Z,31.60
2018-12-17T05:28:49.735Z,31.60
2018-12-17T05:31:54.241Z,31.60
2018-12-17T05:34:58.810Z,31.70
2018-12-17T05:38:03.398Z,31.90
2018-12-17T05:41:07.958Z,32.00
2018-12-17T05:44:12.559Z,32.10
2018-12-17T05:47:17.214Z,32.20
2018-12-17T05:50:21.819Z,32.30
2018-12-17T05:53:26.350Z,32.50
2018-12-17T05:56:30.871Z,32.50
2018-12-17T05:59:35.421Z,32.70
2018-12-17T06:02:40.010Z,32.70
2018-12-17T06:05:44.588Z,32.70
2018-12-17T06:08:49.206Z,32.80
2018-12-17T06:11:54.062Z,32.80
2018-12-17T06:14:58.641Z,32.80
2018-12-17T06:18:03.402Z,32.80
2018-12-17T06:21:07.997Z,32.80
2018-12-17T06:24:12.562Z,32.90
2018-12-17T06:27:17.358Z,32.90
2018-12-17T06:30:21.920Z,32.90
2018-12-17T06:33:26.495Z,32.90
2018-12-17T06:36:31.133Z,32.90
2018-12-17T06:39:35.669Z,32.40
2018-12-17T06:42:40.210Z,33.10
2018-12-17T06:45:44.705Z,33.10
2018-12-17T06:48:49.345Z,33.10
2018-12-17T06:51:54.413Z,33.10
2018-12-17T06:54:58.925Z,33.10
2018-12-17T06:58:03.870Z,33.10
2018-12-17T07:01:08.417Z,33.20
2018-12-17T07:04:12.998Z,33.10
2018-12-17T07:07:17.545Z,33.10
2018-12-17T07:10:22.043Z,33.30
2018-12-17T07:13:26.614Z,33.20
2018-12-17T07:16:31.218Z,33.20
2018-12-17T07:19:35.742Z,33.20
2018-12-17T07:22:40.265Z,33.20
2018-12-17T07:25:44.793Z,33.20
2018-12-17T07:28:49.375Z,33.20
2018-12-17T07:31:54.343Z,33.80
2018-12-17T07:34:59.024Z,33.10
2018-12-17T07:38:03.601Z,33.10
2018-12-17T07:41:08.138Z,33.00
2018-12-17T07:44:12.666Z,33.10
2018-12-17T07:47:17.194Z,33.00
2018-12-17T07:50:21.724Z,33.00
2018-12-17T07:53:26.357Z,33.10
2018-12-17T07:56:31.827Z,33.30
2018-12-17T07:59:36.432Z,48.30
2018-12-17T08:02:40.750Z,56.40
2018-12-17T08:05:45.269Z,53.00
2018-12-17T08:08:50.847Z,50.30
2018-12-17T08:11:55.437Z,46.70
2018-12-17T08:14:59.702Z,46.00
2018-12-17T08:18:15.264Z,45.60
2018-12-17T08:21:19.772Z,44.20
2018-12-17T08:24:24.307Z,43.80
2018-12-17T08:27:28.838Z,43.50
2018-12-17T08:30:33.137Z,43.60
2018-12-17T08:33:38.716Z,43.40
2018-12-17T08:36:43.228Z,43.00
2018-12-17T08:39:47.510Z,42.70
2018-12-17T08:42:52.069Z,42.70
2018-12-17T08:45:56.605Z,42.50
2018-12-17T08:49:01.676Z,42.30
2018-12-17T08:52:05.966Z,42.10
2018-12-17T08:55:10.395Z,42.10
2018-12-17T08:58:15.353Z,42.20
2018-12-17T09:01:19.954Z,41.40
2018-12-17T09:04:24.482Z,41.10
2018-12-17T09:07:29.519Z,41.10
2018-12-17T09:10:34.241Z,40.80
2018-12-17T09:13:38.783Z,40.90
2018-12-17T09:16:43.285Z,40.50
2018-12-17T09:19:47.818Z,40.20
2018-12-17T09:22:53.378Z,40.20
2018-12-17T09:25:57.890Z,40.00
2018-12-17T09:29:02.441Z,39.90
2018-12-17T09:32:07.406Z,40.40
2018-12-17T09:35:11.999Z,39.50
2018-12-17T09:38:16.526Z,39.10
2018-12-17T09:41:21.034Z,39.10
2018-12-17T09:44:25.575Z,38.90
2018-12-17T09:47:30.083Z,38.80
2018-12-17T09:50:34.819Z,38.50
2018-12-17T09:53:39.346Z,38.50
2018-12-17T09:56:43.950Z,38.50
2018-12-17T09:59:48.503Z,38.40
2018-12-17T10:02:53.342Z,38.40
2018-12-17T10:05:57.850Z,38.40
2018-12-17T10:09:02.465Z,38.30
2018-12-17T10:12:09.054Z,38.30
2018-12-17T10:15:13.587Z,38.60
2018-12-17T10:18:18.328Z,39.20
2018-12-17T10:21:23.122Z,39.00
2018-12-17T10:24:28.006Z,38.70
2018-12-17T10:27:33.104Z,38.50
2018-12-17T10:30:37.744Z,38.40
2018-12-17T10:33:42.262Z,38.40
2018-12-17T10:36:46.799Z,38.20
2018-12-17T10:39:51.313Z,38.20
2018-12-17T10:42:55.842Z,38.10
2018-12-17T10:46:00.380Z,38.00
2018-12-17T10:49:04.895Z,39.20
2018-12-17T10:52:09.790Z,38.20
2018-12-17T10:55:14.720Z,38.20
2018-12-17T10:58:19.329Z,38.00
2018-12-17T11:01:34.978Z,38.00
2018-12-17T11:05:00.760Z,38.00
2018-12-17T11:08:05.615Z,37.80
2018-12-17T11:11:10.342Z,37.60
2018-12-17T11:14:14.921Z,37.70
2018-12-17T11:17:19.454Z,38.00
2018-12-17T11:20:24.622Z,38.00
2018-12-17T11:23:29.542Z,37.70
2018-12-17T11:26:34.090Z,37.60
2018-12-17T11:29:38.674Z,37.60
2018-12-17T11:32:45.035Z,37.60
2018-12-17T11:35:49.550Z,37.50
2018-12-17T11:38:54.120Z,37.50
2018-12-17T11:41:58.612Z,37.50
2018-12-17T11:45:04.622Z,37.40
2018-12-17T11:48:09.571Z,37.40
2018-12-17T11:51:14.184Z,37.20
2018-12-17T11:54:19.362Z,37.20
2018-12-17T11:58:27.199Z,37.30
2018-12-17T12:01:33.765Z,37.20
2018-12-17T12:04:38.302Z,37.10
2018-12-17T12:07:43.163Z,37.20
2018-12-17T12:10:47.975Z,37.10
2018-12-17T12:13:52.843Z,36.90
2018-12-17T12:16:57.436Z,37.90
2018-12-17T12:20:02.214Z,37.80
2018-12-17T12:23:08.025Z,37.90
2018-12-17T12:26:12.525Z,37.60
2018-12-17T12:29:17.074Z,37.60
2018-12-17T12:32:21.603Z,37.30
2018-12-17T12:35:26.475Z,37.30
2018-12-17T12:38:31.044Z,37.20
2018-12-17T12:41:35.578Z,37.20
2018-12-17T12:44:40.177Z,37.00
2018-12-17T12:47:44.735Z,37.10
2018-12-17T12:50:49.265Z,37.00
2018-12-17T12:53:54.162Z,37.10
2018-12-17T12:56:58.730Z,36.90
2018-12-17T13:00:03.365Z,36.90
2018-12-17T13:03:09.051Z,36.90
2018-12-17T13:06:13.634Z,36.90
2018-12-17T13:09:20.190Z,36.90
2018-12-17T13:12:24.726Z,37.10
2018-12-17T13:15:29.270Z,38.80
2018-12-17T13:18:33.886Z,38.40
2018-12-17T13:21:38.405Z,37.90
2018-12-17T13:24:42.931Z,38.10
2018-12-17T13:27:48.278Z,38.00
2018-12-17T13:30:52.839Z,37.70
2018-12-17T13:33:57.331Z,37.60
2018-12-17T13:37:01.874Z,37.50
2018-12-17T13:40:08.518Z,37.50
2018-12-17T13:43:13.081Z,37.30
2018-12-17T13:46:18.138Z,37.20
2018-12-17T13:49:22.790Z,37.20
2018-12-17T13:52:32.522Z,37.10
2018-12-17T13:55:37.109Z,37.10
2018-12-17T13:58:42.327Z,37.20
2018-12-17T14:01:51.374Z,37.20
2018-12-17T14:04:53.758Z,37.00
2018-12-17T14:07:58.386Z,36.90
2018-12-17T14:11:02.927Z,36.80
2018-12-17T14:14:07.471Z,36.90
2018-12-17T14:17:17.490Z,36.80
2018-12-17T14:20:27.016Z,36.90
2018-12-17T14:23:31.566Z,36.90
2018-12-17T14:26:36.081Z,36.90
2018-12-17T14:29:40.893Z,36.90
2018-12-17T14:32:45.446Z,36.90
2018-12-17T14:35:55.098Z,36.80
2018-12-17T14:38:59.614Z,36.90
2018-12-17T14:42:05.002Z,36.90
2018-12-17T14:45:09.642Z,37.40
2018-12-17T14:48:14.234Z,36.80
2018-12-17T14:51:18.842Z,36.90
2018-12-17T14:54:23.491Z,36.90
2018-12-17T14:57:29.282Z,36.90
2018-12-17T15:00:33.865Z,36.80
2018-12-17T15:03:39.127Z,36.80
2018-12-17T15:06:43.633Z,37.50
2018-12-17T15:09:49.178Z,36.70
2018-12-17T15:12:55.138Z,36.70
2018-12-17T15:15:59.686Z,36.60
2018-12-17T15:19:04.515Z,37.20
2018-12-17T15:22:09.034Z,36.50
2018-12-17T15:25:13.858Z,36.60
2018-12-17T15:28:18.438Z,36.50
2018-12-17T15:31:23.137Z,36.70
2018-12-17T15:34:27.765Z,36.40
2018-12-17T15:37:32.429Z,36.40
2018-12-17T15:40:37.089Z,36.40
2018-12-17T15:43:41.639Z,36.30
2018-12-17T15:46:46.194Z,36.30
2018-12-17T15:49:50.478Z,36.30
2018-12-17T15:52:54.965Z,36.30
2018-12-17T15:55:59.507Z,36.30
2018-12-17T15:59:04.033Z,36.20
2018-12-17T16:02:08.557Z,36.30
2018-12-17T16:05:13.074Z,36.30
2018-12-17T16:08:17.941Z,36.30
2018-12-17T16:11:22.433Z,36.30
2018-12-17T16:14:27.070Z,36.20
2018-12-17T16:17:31.707Z,36.40
2018-12-17T16:20:36.266Z,36.20
2018-12-17T16:23:40.965Z,36.30
2018-12-17T16:26:46.755Z,36.20
2018-12-17T16:29:51.341Z,36.30
2018-12-17T16:32:55.918Z,36.10
2018-12-17T16:36:00.482Z,36.20
2018-12-17T16:39:07.365Z,36.20
2018-12-17T16:42:13.039Z,36.10
2018-12-17T16:45:17.591Z,36.10
2018-12-17T16:48:22.194Z,36.20
2018-12-17T16:51:26.753Z,36.10
2018-12-17T16:54:31.271Z,36.20
2018-12-17T16:57:36.579Z,36.20
2018-12-17T17:00:41.202Z,36.20
2018-12-17T17:03:45.899Z,36.10
2018-12-17T17:06:50.469Z,36.00
2018-12-17T17:09:57.077Z,36.10
2018-12-17T17:13:01.681Z,36.10
2018-12-17T17:16:06.542Z,36.00
2018-12-17T17:19:11.130Z,36.10
2018-12-17T17:22:15.702Z,36.00
2018-12-17T17:25:20.277Z,36.10
2018-12-17T17:28:25.073Z,36.00
2018-12-17T17:31:29.662Z,36.30
2018-12-17T17:34:34.198Z,35.90
2018-12-17T17:37:38.813Z,35.90
2018-12-17T17:40:43.456Z,35.90
2018-12-17T17:43:47.722Z,35.80
2018-12-17T17:46:52.062Z,35.90
2018-12-17T17:49:56.322Z,35.80
2018-12-17T17:53:01.653Z,35.90
2018-12-17T17:56:06.073Z,35.50
2018-12-17T17:59:10.638Z,35.30
2018-12-17T18:02:18.849Z,35.20
2018-12-17T18:05:22.022Z,35.30
2018-12-17T18:08:26.538Z,36.10
2018-12-17T18:11:31.086Z,35.70
2018-12-17T18:14:35.690Z,35.70
2018-12-17T18:17:41.218Z,35.50
2018-12-17T18:20:45.760Z,35.40
2018-12-17T18:23:50.305Z,35.40
2018-12-17T18:26:54.901Z,35.20
2018-12-17T18:29:59.507Z,35.10
2018-12-17T18:33:04.183Z,35.70
2018-12-17T18:36:08.685Z,35.10
2018-12-17T18:39:13.379Z,35.00
2018-12-17T18:42:17.938Z,34.90
2018-12-17T18:45:22.482Z,34.80
2018-12-17T18:48:26.997Z,35.00
2018-12-17T18:51:31.542Z,35.20
2018-12-17T18:54:36.078Z,35.30
2018-12-17T18:57:41.089Z,35.30
2018-12-17T19:00:45.628Z,35.40
2018-12-17T19:03:50.245Z,35.50
2018-12-17T19:06:54.781Z,35.40
2018-12-17T19:09:59.877Z,35.50
2018-12-17T19:13:04.438Z,35.70
2018-12-17T19:16:08.961Z,35.90
2018-12-17T19:19:13.481Z,36.20
2018-12-17T19:22:18.037Z,36.40
2018-12-17T19:25:22.534Z,36.40
2018-12-17T19:28:27.087Z,36.40
2018-12-17T19:31:34.713Z,36.70
2018-12-17T19:34:39.206Z,36.10
2018-12-17T19:37:43.908Z,36.00
2018-12-17T19:40:48.573Z,36.00
2018-12-17T19:43:54.101Z,35.80
2018-12-17T19:46:58.637Z,35.80
2018-12-17T19:50:03.353Z,35.70
2018-12-17T19:53:07.885Z,35.70
2018-12-17T19:56:12.553Z,35.20
2018-12-17T19:59:17.065Z,35.80
2018-12-17T20:02:21.650Z,35.40
2018-12-17T20:05:26.566Z,35.40
2018-12-17T20:08:31.141Z,35.40
2018-12-17T20:11:35.821Z,35.50
2018-12-17T20:14:40.390Z,35.60
2018-12-17T20:17:44.911Z,35.70
2018-12-17T20:20:49.462Z,35.20
2018-12-17T20:23:53.969Z,36.40
2018-12-17T20:26:58.492Z,35.90
2018-12-17T20:30:03.033Z,36.60
2018-12-17T20:33:07.669Z,36.00
2018-12-17T20:36:12.185Z,35.90
2018-12-17T20:39:16.701Z,35.90
2018-12-17T20:42:21.241Z,36.00
2018-12-17T20:45:25.754Z,36.10
2018-12-17T20:48:30.305Z,35.90
2018-12-17T20:51:34.765Z,35.90
2018-12-17T20:54:39.354Z,35.70
2018-12-17T20:57:43.858Z,35.70
2018-12-17T21:00:48.432Z,35.60
2018-12-17T21:03:53.034Z,35.90
2018-12-17T21:06:57.557Z,35.60
2018-12-17T21:10:02.068Z,35.50
2018-12-17T21:13:06.606Z,35.30
2018-12-17T21:16:12.525Z,35.30
2018-12-17T21:19:17.393Z,35.10
2018-12-17T21:22:21.929Z,34.90
2018-12-17T21:25:26.456Z,35.00
2018-12-17T21:28:30.988Z,34.90
2018-12-17T21:31:35.499Z,35.00
2018-12-17T21:34:40.042Z,34.90
2018-12-17T21:37:44.567Z,34.90
2018-12-17T21:40:49.383Z,35.60
2018-12-17T21:43:53.926Z,34.80
2018-12-17T21:46:58.454Z,34.80
2018-12-17T21:50:03.122Z,34.70
2018-12-17T21:53:08.101Z,34.70
2018-12-17T21:56:15.366Z,34.70
2018-12-17T21:59:19.984Z,34.60
2018-12-17T22:02:25.522Z,34.60
2018-12-17T22:05:30.042Z,34.60
2018-12-17T22:08:34.580Z,34.60
2018-12-17T22:11:39.097Z,35.10
2018-12-17T22:14:44.233Z,35.60
2018-12-17T22:17:49.298Z,35.60
2018-12-17T22:20:53.922Z,33.40
2018-12-17T22:23:58.441Z,33.00
2018-12-17T22:27:02.978Z,33.50
2018-12-17T22:30:07.786Z,33.90
2018-12-17T22:33:12.318Z,33.90
2018-12-17T22:36:16.850Z,33.90
2018-12-17T22:39:21.394Z,34.00
2018-12-17T22:42:25.941Z,34.10
2018-12-17T22:45:30.572Z,34.00
2018-12-17T22:48:35.173Z,34.00
2018-12-17T22:51:40.706Z,34.00
2018-12-17T22:54:45.231Z,34.00
2018-12-17T22:57:49.781Z,34.00
2018-12-17T23:00:54.605Z,33.90
2018-12-17T23:03:59.161Z,33.90
2018-12-17T23:07:03.753Z,34.00
2018-12-17T23:10:19.590Z,33.90
2018-12-17T23:13:35.354Z,33.90
2018-12-17T23:16:50.858Z,33.90
2018-12-17T23:19:55.452Z,33.80
2018-12-17T23:23:02.429Z,33.80
2018-12-17T23:26:09.013Z,33.80
2018-12-17T23:29:13.578Z,33.80
2018-12-17T23:32:18.169Z,33.80
2018-12-17T23:35:22.805Z,34.20
2018-12-17T23:38:27.428Z,33.80
2018-12-17T23:41:31.966Z,33.70
2018-12-17T23:44:37.253Z,33.70
2018-12-17T23:47:42.061Z,33.60
2018-12-17T23:50:46.662Z,33.70
2018-12-17T23:53:51.317Z,33.70
2018-12-17T23:56:55.914Z,33.70
